sensor_id;sensor_type;location;lat;lon;timestamp;temperature;humidity
30594;DHT22;33199;47.590;8.300;2023-06-22T00:01:02;25.40;58.90
30594;DHT22;33199;47.590;8.300;2023-06-22T00:03:28;25.40;59.00
30594;DHT22;33199;47.590;8.300;2023-06-22T00:05:53;25.40;58.90
30594;DHT22;33199;47.590;8.300;2023-06-22T00:08:20;25.40;59.00
30594;DHT22;33199;47.590;8.300;2023-06-22T00:10:45;25.40;59.00
30594;DHT22;33199;47.590;8.300;2023-06-22T00:13:12;25.40;58.90
30594;DHT22;33199;47.590;8.300;2023-06-22T00:15:38;25.30;58.90
30594;DHT22;33199;47.590;8.300;2023-06-22T00:18:05;25.30;58.90
30594;DHT22;33199;47.590;8.300;2023-06-22T00:20:31;25.30;58.90
30594;DHT22;33199;47.590;8.300;2023-06-22T00:22:58;25.30;58.90
30594;DHT22;33199;47.590;8.300;2023-06-22T00:25:23;25.30;59.00
30594;DHT22;33199;47.590;8.300;2023-06-22T00:27:49;25.30;58.90
30594;DHT22;33199;47.590;8.300;2023-06-22T00:30:18;25.30;58.90
30594;DHT22;33199;47.590;8.300;2023-06-22T00:32:44;25.30;58.80
30594;DHT22;33199;47.590;8.300;2023-06-22T00:35:10;25.30;59.00
30594;DHT22;33199;47.590;8.300;2023-06-22T00:37:36;25.30;58.80
30594;DHT22;33199;47.590;8.300;2023-06-22T00:40:02;25.30;58.90
30594;DHT22;33199;47.590;8.300;2023-06-22T00:42:28;25.30;58.90
30594;DHT22;33199;47.590;8.300;2023-06-22T00:44:53;25.30;58.80
30594;DHT22;33199;47.590;8.300;2023-06-22T00:47:19;25.30;58.90
30594;DHT22;33199;47.590;8.300;2023-06-22T00:49:44;25.30;58.80
30594;DHT22;33199;47.590;8.300;2023-06-22T00:52:11;25.30;58.90
30594;DHT22;33199;47.590;8.300;2023-06-22T00:54:42;25.30;58.90
30594;DHT22;33199;47.590;8.300;2023-06-22T00:57:13;25.30;58.80
30594;DHT22;33199;47.590;8.300;2023-06-22T00:59:42;25.20;58.80
30594;DHT22;33199;47.590;8.300;2023-06-22T01:02:07;25.30;58.80
30594;DHT22;33199;47.590;8.300;2023-06-22T01:04:36;25.20;58.70
30594;DHT22;33199;47.590;8.300;2023-06-22T01:09:28;25.20;58.60
30594;DHT22;33199;47.590;8.300;2023-06-22T01:11:57;25.20;58.70
30594;DHT22;33199;47.590;8.300;2023-06-22T01:14:30;25.20;58.70
30594;DHT22;33199;47.590;8.300;2023-06-22T01:16:57;25.20;58.70
30594;DHT22;33199;47.590;8.300;2023-06-22T01:19:44;25.20;58.50
30594;DHT22;33199;47.590;8.300;2023-06-22T01:22:15;25.20;58.60
30594;DHT22;33199;47.590;8.300;2023-06-22T01:24:45;25.20;58.60
30594;DHT22;33199;47.590;8.300;2023-06-22T01:27:49;25.20;58.70
30594;DHT22;33199;47.590;8.300;2023-06-22T01:30:07;25.10;58.60
30594;DHT22;33199;47.590;8.300;2023-06-22T01:32:36;25.10;58.50
30594;DHT22;33199;47.590;8.300;2023-06-22T01:35:03;25.10;58.60
30594;DHT22;33199;47.590;8.300;2023-06-22T01:37:29;25.10;58.70
30594;DHT22;33199;47.590;8.300;2023-06-22T01:39:57;25.10;58.60
30594;DHT22;33199;47.590;8.300;2023-06-22T01:42:26;25.10;58.50
30594;DHT22;33199;47.590;8.300;2023-06-22T01:44:53;25.10;58.50
30594;DHT22;33199;47.590;8.300;2023-06-22T01:47:20;25.10;58.60
30594;DHT22;33199;47.590;8.300;2023-06-22T01:49:47;25.10;58.60
30594;DHT22;33199;47.590;8.300;2023-06-22T01:52:13;25.10;58.60
30594;DHT22;33199;47.590;8.300;2023-06-22T01:54:39;25.10;59.10
30594;DHT22;33199;47.590;8.300;2023-06-22T01:57:05;25.10;58.60
30594;DHT22;33199;47.590;8.300;2023-06-22T01:59:48;25.10;58.60
30594;DHT22;33199;47.590;8.300;2023-06-22T02:02:17;25.10;58.60
30594;DHT22;33199;47.590;8.300;2023-06-22T02:04:45;25.10;58.60
30594;DHT22;33199;47.590;8.300;2023-06-22T02:07:13;25.10;58.60
30594;DHT22;33199;47.590;8.300;2023-06-22T02:09:39;25.00;58.50
30594;DHT22;33199;47.590;8.300;2023-06-22T02:12:07;25.00;58.40
30594;DHT22;33199;47.590;8.300;2023-06-22T02:14:34;25.00;58.60
30594;DHT22;33199;47.590;8.300;2023-06-22T02:17:00;25.00;58.50
30594;DHT22;33199;47.590;8.300;2023-06-22T02:19:26;25.00;58.50
30594;DHT22;33199;47.590;8.300;2023-06-22T02:21:52;25.00;58.40
30594;DHT22;33199;47.590;8.300;2023-06-22T02:24:17;25.00;58.40
30594;DHT22;33199;47.590;8.300;2023-06-22T02:26:43;25.00;58.50
30594;DHT22;33199;47.590;8.300;2023-06-22T02:29:10;25.00;58.50
30594;DHT22;33199;47.590;8.300;2023-06-22T02:31:36;25.00;58.40
30594;DHT22;33199;47.590;8.300;2023-06-22T02:34:01;25.00;58.60
30594;DHT22;33199;47.590;8.300;2023-06-22T02:36:27;25.00;58.50
30594;DHT22;33199;47.590;8.300;2023-06-22T02:38:55;25.00;58.50
30594;DHT22;33199;47.590;8.300;2023-06-22T02:41:24;24.90;58.40
30594;DHT22;33199;47.590;8.300;2023-06-22T02:43:49;24.90;58.50
30594;DHT22;33199;47.590;8.300;2023-06-22T02:46:15;24.90;58.50
30594;DHT22;33199;47.590;8.300;2023-06-22T02:48:40;24.90;58.50
30594;DHT22;33199;47.590;8.300;2023-06-22T02:51:06;24.90;58.40
30594;DHT22;33199;47.590;8.300;2023-06-22T02:53:32;24.90;58.50
30594;DHT22;33199;47.590;8.300;2023-06-22T02:55:57;24.90;58.60
30594;DHT22;33199;47.590;8.300;2023-06-22T02:58:23;24.90;58.50
30594;DHT22;33199;47.590;8.300;2023-06-22T03:00:49;24.90;58.60
30594;DHT22;33199;47.590;8.300;2023-06-22T03:03:19;24.90;58.50
30594;DHT22;33199;47.590;8.300;2023-06-22T03:05:45;24.90;58.50
30594;DHT22;33199;47.590;8.300;2023-06-22T03:08:10;24.90;58.40
30594;DHT22;33199;47.590;8.300;2023-06-22T03:10:36;24.90;58.40
30594;DHT22;33199;47.590;8.300;2023-06-22T03:13:01;24.90;58.50
30594;DHT22;33199;47.590;8.300;2023-06-22T03:15:29;24.90;58.50
30594;DHT22;33199;47.590;8.300;2023-06-22T03:17:56;24.90;58.40
30594;DHT22;33199;47.590;8.300;2023-06-22T03:20:22;24.80;58.50
30594;DHT22;33199;47.590;8.300;2023-06-22T03:22:48;24.80;58.40
30594;DHT22;33199;47.590;8.300;2023-06-22T03:25:14;24.80;58.50
30594;DHT22;33199;47.590;8.300;2023-06-22T03:27:40;24.80;58.40
30594;DHT22;33199;47.590;8.300;2023-06-22T03:30:06;24.80;58.40
30594;DHT22;33199;47.590;8.300;2023-06-22T03:32:32;24.80;58.40
30594;DHT22;33199;47.590;8.300;2023-06-22T03:34:57;24.80;58.50
30594;DHT22;33199;47.590;8.300;2023-06-22T03:37:24;24.80;58.60
30594;DHT22;33199;47.590;8.300;2023-06-22T03:39:50;24.80;58.40
30594;DHT22;33199;47.590;8.300;2023-06-22T03:42:15;24.80;58.40
30594;DHT22;33199;47.590;8.300;2023-06-22T03:44:41;24.80;58.60
30594;DHT22;33199;47.590;8.300;2023-06-22T03:47:06;24.80;58.50
30594;DHT22;33199;47.590;8.300;2023-06-22T03:49:33;24.80;58.40
30594;DHT22;33199;47.590;8.300;2023-06-22T03:51:59;24.80;58.50
30594;DHT22;33199;47.590;8.300;2023-06-22T03:54:24;24.70;58.50
30594;DHT22;33199;47.590;8.300;2023-06-22T03:56:50;24.70;58.40
30594;DHT22;33199;47.590;8.300;2023-06-22T03:59:15;24.70;58.40
30594;DHT22;33199;47.590;8.300;2023-06-22T04:01:41;24.70;58.40
30594;DHT22;33199;47.590;8.300;2023-06-22T04:04:08;24.70;58.30
30594;DHT22;33199;47.590;8.300;2023-06-22T04:06:34;24.70;58.30
30594;DHT22;33199;47.590;8.300;2023-06-22T04:08:59;24.70;58.40
30594;DHT22;33199;47.590;8.300;2023-06-22T04:11:26;24.70;58.40
30594;DHT22;33199;47.590;8.300;2023-06-22T04:13:51;24.70;58.40
30594;DHT22;33199;47.590;8.300;2023-06-22T04:16:17;24.70;58.40
30594;DHT22;33199;47.590;8.300;2023-06-22T04:18:42;24.70;58.40
30594;DHT22;33199;47.590;8.300;2023-06-22T04:21:09;24.70;58.30
30594;DHT22;33199;47.590;8.300;2023-06-22T04:23:35;24.70;58.40
30594;DHT22;33199;47.590;8.300;2023-06-22T04:26:00;24.70;58.60
30594;DHT22;33199;47.590;8.300;2023-06-22T04:28:26;24.70;58.40
30594;DHT22;33199;47.590;8.300;2023-06-22T04:30:51;24.70;58.40
30594;DHT22;33199;47.590;8.300;2023-06-22T04:33:17;24.70;58.40
30594;DHT22;33199;47.590;8.300;2023-06-22T04:35:44;24.60;58.30
30594;DHT22;33199;47.590;8.300;2023-06-22T04:38:11;24.70;58.40
30594;DHT22;33199;47.590;8.300;2023-06-22T04:40:41;24.60;58.30
30594;DHT22;33199;47.590;8.300;2023-06-22T04:43:07;24.60;58.40
30594;DHT22;33199;47.590;8.300;2023-06-22T04:45:35;24.60;58.30
30594;DHT22;33199;47.590;8.300;2023-06-22T04:48:03;24.60;58.30
30594;DHT22;33199;47.590;8.300;2023-06-22T04:50:28;24.60;58.20
30594;DHT22;33199;47.590;8.300;2023-06-22T04:52:54;24.60;58.30
30594;DHT22;33199;47.590;8.300;2023-06-22T04:55:20;24.60;58.20
30594;DHT22;33199;47.590;8.300;2023-06-22T04:57:46;24.60;58.30
30594;DHT22;33199;47.590;8.300;2023-06-22T05:00:15;24.60;58.40
30594;DHT22;33199;47.590;8.300;2023-06-22T05:02:43;24.60;58.50
30594;DHT22;33199;47.590;8.300;2023-06-22T05:05:08;24.50;58.30
30594;DHT22;33199;47.590;8.300;2023-06-22T05:07:45;24.50;58.30
30594;DHT22;33199;47.590;8.300;2023-06-22T05:10:13;24.60;58.40
30594;DHT22;33199;47.590;8.300;2023-06-22T05:12:39;24.50;58.20
30594;DHT22;33199;47.590;8.300;2023-06-22T05:15:05;24.50;58.20
30594;DHT22;33199;47.590;8.300;2023-06-22T05:17:31;24.50;59.00
30594;DHT22;33199;47.590;8.300;2023-06-22T05:19:57;24.50;58.30
30594;DHT22;33199;47.590;8.300;2023-06-22T05:22:23;24.50;58.40
30594;DHT22;33199;47.590;8.300;2023-06-22T05:24:48;24.50;58.90
30594;DHT22;33199;47.590;8.300;2023-06-22T05:27:14;24.50;58.40
30594;DHT22;33199;47.590;8.300;2023-06-22T05:29:39;24.50;58.50
30594;DHT22;33199;47.590;8.300;2023-06-22T05:32:05;24.50;58.40
30594;DHT22;33199;47.590;8.300;2023-06-22T05:34:31;24.50;58.40
30594;DHT22;33199;47.590;8.300;2023-06-22T05:36:57;24.50;60.00
30594;DHT22;33199;47.590;8.300;2023-06-22T05:39:24;24.50;61.00
30594;DHT22;33199;47.590;8.300;2023-06-22T05:41:49;24.30;61.50
30594;DHT22;33199;47.590;8.300;2023-06-22T05:44:15;24.30;61.70
30594;DHT22;33199;47.590;8.300;2023-06-22T05:46:40;24.30;61.40
30594;DHT22;33199;47.590;8.300;2023-06-22T05:49:10;24.30;61.10
30594;DHT22;33199;47.590;8.300;2023-06-22T05:51:35;24.30;60.70
30594;DHT22;33199;47.590;8.300;2023-06-22T05:54:01;24.30;60.50
30594;DHT22;33199;47.590;8.300;2023-06-22T05:56:26;24.30;60.40
30594;DHT22;33199;47.590;8.300;2023-06-22T05:58:52;24.30;60.20
30594;DHT22;33199;47.590;8.300;2023-06-22T06:01:17;24.30;60.00
30594;DHT22;33199;47.590;8.300;2023-06-22T06:03:43;24.30;59.90
30594;DHT22;33199;47.590;8.300;2023-06-22T06:06:12;24.30;59.90
30594;DHT22;33199;47.590;8.300;2023-06-22T06:08:38;24.30;59.80
30594;DHT22;33199;47.590;8.300;2023-06-22T06:11:04;24.30;59.60
30594;DHT22;33199;47.590;8.300;2023-06-22T06:13:29;24.30;59.50
30594;DHT22;33199;47.590;8.300;2023-06-22T06:15:55;24.30;59.60
30594;DHT22;33199;47.590;8.300;2023-06-22T06:18:21;24.30;59.50
30594;DHT22;33199;47.590;8.300;2023-06-22T06:20:47;24.30;59.50
30594;DHT22;33199;47.590;8.300;2023-06-22T06:23:12;24.30;59.50
30594;DHT22;33199;47.590;8.300;2023-06-22T06:25:38;24.30;59.40
30594;DHT22;33199;47.590;8.300;2023-06-22T06:28:03;24.30;59.40
30594;DHT22;33199;47.590;8.300;2023-06-22T06:30:29;24.30;59.40
30594;DHT22;33199;47.590;8.300;2023-06-22T06:32:54;24.30;59.30
30594;DHT22;33199;47.590;8.300;2023-06-22T06:35:20;24.30;59.30
30594;DHT22;33199;47.590;8.300;2023-06-22T06:37:48;24.30;59.20
30594;DHT22;33199;47.590;8.300;2023-06-22T06:40:14;24.30;59.30
30594;DHT22;33199;47.590;8.300;2023-06-22T06:42:49;24.30;59.30
30594;DHT22;33199;47.590;8.300;2023-06-22T06:47:43;24.30;59.20
30594;DHT22;33199;47.590;8.300;2023-06-22T06:50:09;24.20;59.10
30594;DHT22;33199;47.590;8.300;2023-06-22T06:52:35;24.20;59.10
30594;DHT22;33199;47.590;8.300;2023-06-22T06:55:00;24.30;59.10
30594;DHT22;33199;47.590;8.300;2023-06-22T06:57:26;24.20;59.10
30594;DHT22;33199;47.590;8.300;2023-06-22T06:59:54;24.20;59.10
30594;DHT22;33199;47.590;8.300;2023-06-22T07:02:20;24.20;59.10
30594;DHT22;33199;47.590;8.300;2023-06-22T07:04:46;24.20;59.00
30594;DHT22;33199;47.590;8.300;2023-06-22T07:07:12;24.20;59.00
30594;DHT22;33199;47.590;8.300;2023-06-22T07:09:37;24.20;59.00
30594;DHT22;33199;47.590;8.300;2023-06-22T07:12:03;24.20;58.90
30594;DHT22;33199;47.590;8.300;2023-06-22T07:14:28;24.20;58.90
30594;DHT22;33199;47.590;8.300;2023-06-22T07:16:54;24.20;58.90
30594;DHT22;33199;47.590;8.300;2023-06-22T07:19:26;24.20;58.90
30594;DHT22;33199;47.590;8.300;2023-06-22T07:21:52;24.20;58.80
30594;DHT22;33199;47.590;8.300;2023-06-22T07:24:19;24.20;58.80
30594;DHT22;33199;47.590;8.300;2023-06-22T07:26:45;24.20;58.90
30594;DHT22;33199;47.590;8.300;2023-06-22T07:29:11;24.20;58.80
30594;DHT22;33199;47.590;8.300;2023-06-22T07:31:37;24.20;58.80
30594;DHT22;33199;47.590;8.300;2023-06-22T07:34:02;24.20;58.80
30594;DHT22;33199;47.590;8.300;2023-06-22T07:36:29;24.20;58.90
30594;DHT22;33199;47.590;8.300;2023-06-22T07:38:55;24.20;59.00
30594;DHT22;33199;47.590;8.300;2023-06-22T07:41:20;24.20;59.10
30594;DHT22;33199;47.590;8.300;2023-06-22T07:43:46;24.20;59.00
30594;DHT22;33199;47.590;8.300;2023-06-22T07:46:12;24.20;59.10
30594;DHT22;33199;47.590;8.300;2023-06-22T07:48:37;24.20;59.00
30594;DHT22;33199;47.590;8.300;2023-06-22T07:51:03;24.20;59.00
30594;DHT22;33199;47.590;8.300;2023-06-22T07:53:28;24.20;59.00
30594;DHT22;33199;47.590;8.300;2023-06-22T07:55:54;24.10;59.00
30594;DHT22;33199;47.590;8.300;2023-06-22T07:58:19;24.20;59.00
30594;DHT22;33199;47.590;8.300;2023-06-22T08:00:46;24.20;59.00
30594;DHT22;33199;47.590;8.300;2023-06-22T08:03:12;24.20;59.00
30594;DHT22;33199;47.590;8.300;2023-06-22T08:05:37;24.10;58.90
30594;DHT22;33199;47.590;8.300;2023-06-22T08:08:02;24.20;59.00
30594;DHT22;33199;47.590;8.300;2023-06-22T08:10:28;24.10;58.90
30594;DHT22;33199;47.590;8.300;2023-06-22T08:12:53;24.10;58.90
30594;DHT22;33199;47.590;8.300;2023-06-22T08:15:19;24.10;58.90
30594;DHT22;33199;47.590;8.300;2023-06-22T08:17:44;24.20;60.80
30594;DHT22;33199;47.590;8.300;2023-06-22T08:20:11;24.20;60.10
30594;DHT22;33199;47.590;8.300;2023-06-22T08:22:38;24.20;60.00
30594;DHT22;33199;47.590;8.300;2023-06-22T08:25:03;24.20;60.00
30594;DHT22;33199;47.590;8.300;2023-06-22T08:27:30;24.20;59.90
30594;DHT22;33199;47.590;8.300;2023-06-22T08:29:57;24.20;59.70
30594;DHT22;33199;47.590;8.300;2023-06-22T08:32:27;24.20;59.60
30594;DHT22;33199;47.590;8.300;2023-06-22T08:34:53;24.20;59.70
30594;DHT22;33199;47.590;8.300;2023-06-22T08:37:19;24.20;59.50
30594;DHT22;33199;47.590;8.300;2023-06-22T08:39:45;24.20;59.50
30594;DHT22;33199;47.590;8.300;2023-06-22T08:42:10;24.20;59.60
30594;DHT22;33199;47.590;8.300;2023-06-22T08:44:37;24.20;59.60
30594;DHT22;33199;47.590;8.300;2023-06-22T08:47:02;24.20;59.60
30594;DHT22;33199;47.590;8.300;2023-06-22T08:49:28;24.20;59.30
30594;DHT22;33199;47.590;8.300;2023-06-22T08:51:54;24.20;59.30
30594;DHT22;33199;47.590;8.300;2023-06-22T08:54:22;24.20;59.20
30594;DHT22;33199;47.590;8.300;2023-06-22T08:56:47;24.20;59.20
30594;DHT22;33199;47.590;8.300;2023-06-22T08:59:13;24.20;59.30
30594;DHT22;33199;47.590;8.300;2023-06-22T09:01:38;24.20;59.30
30594;DHT22;33199;47.590;8.300;2023-06-22T09:04:04;24.20;59.00
30594;DHT22;33199;47.590;8.300;2023-06-22T09:06:31;24.20;59.20
30594;DHT22;33199;47.590;8.300;2023-06-22T09:08:57;24.20;59.10
30594;DHT22;33199;47.590;8.300;2023-06-22T09:11:24;24.10;59.10
30594;DHT22;33199;47.590;8.300;2023-06-22T09:13:50;24.10;59.20
30594;DHT22;33199;47.590;8.300;2023-06-22T09:16:17;24.10;59.00
30594;DHT22;33199;47.590;8.300;2023-06-22T09:18:42;24.10;59.00
30594;DHT22;33199;47.590;8.300;2023-06-22T09:21:08;24.10;58.90
30594;DHT22;33199;47.590;8.300;2023-06-22T09:23:34;24.10;58.90
30594;DHT22;33199;47.590;8.300;2023-06-22T09:25:59;24.10;58.90
30594;DHT22;33199;47.590;8.300;2023-06-22T09:28:25;24.10;58.90
30594;DHT22;33199;47.590;8.300;2023-06-22T09:30:51;24.10;58.80
30594;DHT22;33199;47.590;8.300;2023-06-22T09:33:16;24.20;61.30
30594;DHT22;33199;47.590;8.300;2023-06-22T09:35:44;24.30;60.70
30594;DHT22;33199;47.590;8.300;2023-06-22T09:38:10;24.30;60.60
30594;DHT22;33199;47.590;8.300;2023-06-22T09:40:35;24.30;61.20
30594;DHT22;33199;47.590;8.300;2023-06-22T09:43:05;24.30;61.00
30594;DHT22;33199;47.590;8.300;2023-06-22T09:45:30;24.30;60.90
30594;DHT22;33199;47.590;8.300;2023-06-22T09:47:56;24.30;60.60
30594;DHT22;33199;47.590;8.300;2023-06-22T09:50:21;24.30;60.40
30594;DHT22;33199;47.590;8.300;2023-06-22T09:52:47;24.20;60.30
30594;DHT22;33199;47.590;8.300;2023-06-22T09:55:16;24.20;60.20
30594;DHT22;33199;47.590;8.300;2023-06-22T09:57:41;24.20;60.30
30594;DHT22;33199;47.590;8.300;2023-06-22T10:00:07;24.30;60.50
30594;DHT22;33199;47.590;8.300;2023-06-22T10:02:38;24.20;59.80
30594;DHT22;33199;47.590;8.300;2023-06-22T10:05:03;24.20;60.00
30594;DHT22;33199;47.590;8.300;2023-06-22T10:07:29;24.20;60.00
30594;DHT22;33199;47.590;8.300;2023-06-22T10:09:54;24.20;59.70
30594;DHT22;33199;47.590;8.300;2023-06-22T10:12:20;24.20;59.60
30594;DHT22;33199;47.590;8.300;2023-06-22T10:14:45;24.20;59.70
30594;DHT22;33199;47.590;8.300;2023-06-22T10:17:11;24.20;60.80
30594;DHT22;33199;47.590;8.300;2023-06-22T10:19:36;24.20;59.90
30594;DHT22;33199;47.590;8.300;2023-06-22T10:22:03;24.20;59.90
30594;DHT22;33199;47.590;8.300;2023-06-22T10:24:29;24.20;59.80
30594;DHT22;33199;47.590;8.300;2023-06-22T10:26:54;24.20;59.70
30594;DHT22;33199;47.590;8.300;2023-06-22T10:29:20;24.20;59.70
30594;DHT22;33199;47.590;8.300;2023-06-22T10:31:45;24.20;59.70
30594;DHT22;33199;47.590;8.300;2023-06-22T10:34:11;24.20;59.70
30594;DHT22;33199;47.590;8.300;2023-06-22T10:36:36;24.20;59.70
30594;DHT22;33199;47.590;8.300;2023-06-22T10:39:02;24.20;59.60
30594;DHT22;33199;47.590;8.300;2023-06-22T10:41:33;24.20;59.40
30594;DHT22;33199;47.590;8.300;2023-06-22T10:43:59;24.20;59.60
30594;DHT22;33199;47.590;8.300;2023-06-22T10:46:24;24.20;59.60
30594;DHT22;33199;47.590;8.300;2023-06-22T10:48:52;24.20;59.60
30594;DHT22;33199;47.590;8.300;2023-06-22T10:51:20;24.20;59.60
30594;DHT22;33199;47.590;8.300;2023-06-22T10:53:45;24.20;59.60
30594;DHT22;33199;47.590;8.300;2023-06-22T10:56:11;24.20;59.80
30594;DHT22;33199;47.590;8.300;2023-06-22T10:58:36;24.20;60.40
30594;DHT22;33199;47.590;8.300;2023-06-22T11:01:02;24.20;59.70
30594;DHT22;33199;47.590;8.300;2023-06-22T11:03:28;24.20;59.60
30594;DHT22;33199;47.590;8.300;2023-06-22T11:05:54;24.20;59.70
30594;DHT22;33199;47.590;8.300;2023-06-22T11:08:19;24.20;59.60
30594;DHT22;33199;47.590;8.300;2023-06-22T11:10:45;24.20;59.70
30594;DHT22;33199;47.590;8.300;2023-06-22T11:13:10;24.20;59.60
30594;DHT22;33199;47.590;8.300;2023-06-22T11:15:36;24.20;59.60
30594;DHT22;33199;47.590;8.300;2023-06-22T11:18:01;24.20;59.70
30594;DHT22;33199;47.590;8.300;2023-06-22T11:20:27;24.20;59.70
30594;DHT22;33199;47.590;8.300;2023-06-22T11:22:52;24.20;59.50
30594;DHT22;33199;47.590;8.300;2023-06-22T11:25:18;24.20;59.50
30594;DHT22;33199;47.590;8.300;2023-06-22T11:27:43;24.20;59.40
30594;DHT22;33199;47.590;8.300;2023-06-22T11:30:09;24.20;59.50
30594;DHT22;33199;47.590;8.300;2023-06-22T11:32:34;24.20;59.30
30594;DHT22;33199;47.590;8.300;2023-06-22T11:35:00;24.20;59.50
30594;DHT22;33199;47.590;8.300;2023-06-22T11:37:26;24.20;59.10
30594;DHT22;33199;47.590;8.300;2023-06-22T11:39:51;24.20;59.40
30594;DHT22;33199;47.590;8.300;2023-06-22T11:42:19;24.20;59.30
30594;DHT22;33199;47.590;8.300;2023-06-22T11:44:45;24.20;59.20
30594;DHT22;33199;47.590;8.300;2023-06-22T11:47:11;24.30;66.00
30594;DHT22;33199;47.590;8.300;2023-06-22T11:49:36;24.50;67.40
30594;DHT22;33199;47.590;8.300;2023-06-22T11:52:02;24.60;67.40
30594;DHT22;33199;47.590;8.300;2023-06-22T11:54:27;24.80;68.00
30594;DHT22;33199;47.590;8.300;2023-06-22T11:56:53;24.90;68.00
30594;DHT22;33199;47.590;8.300;2023-06-22T11:59:18;25.00;68.30
30594;DHT22;33199;47.590;8.300;2023-06-22T12:01:44;25.10;67.90
30594;DHT22;33199;47.590;8.300;2023-06-22T12:04:10;25.10;67.00
30594;DHT22;33199;47.590;8.300;2023-06-22T12:06:37;25.20;67.10
30594;DHT22;33199;47.590;8.300;2023-06-22T12:09:03;25.20;66.80
30594;DHT22;33199;47.590;8.300;2023-06-22T12:11:30;25.20;66.50
30594;DHT22;33199;47.590;8.300;2023-06-22T12:13:56;25.20;65.50
30594;DHT22;33199;47.590;8.300;2023-06-22T12:16:27;25.20;65.80
30594;DHT22;33199;47.590;8.300;2023-06-22T12:18:52;25.10;65.40
30594;DHT22;33199;47.590;8.300;2023-06-22T12:21:19;25.10;65.40
30594;DHT22;33199;47.590;8.300;2023-06-22T12:23:44;25.10;65.20
30594;DHT22;33199;47.590;8.300;2023-06-22T12:26:09;25.10;65.00
30594;DHT22;33199;47.590;8.300;2023-06-22T12:28:35;25.10;64.90
30594;DHT22;33199;47.590;8.300;2023-06-22T12:31:00;25.00;64.80
30594;DHT22;33199;47.590;8.300;2023-06-22T12:33:26;25.00;64.60
30594;DHT22;33199;47.590;8.300;2023-06-22T12:35:53;25.00;64.40
30594;DHT22;33199;47.590;8.300;2023-06-22T12:38:18;25.00;64.40
30594;DHT22;33199;47.590;8.300;2023-06-22T12:40:43;25.00;64.20
30594;DHT22;33199;47.590;8.300;2023-06-22T12:43:09;25.00;64.20
30594;DHT22;33199;47.590;8.300;2023-06-22T12:45:34;24.90;63.90
30594;DHT22;33199;47.590;8.300;2023-06-22T12:48:00;24.90;63.80
30594;DHT22;33199;47.590;8.300;2023-06-22T12:50:26;24.90;63.70
30594;DHT22;33199;47.590;8.300;2023-06-22T12:52:51;24.90;63.60
30594;DHT22;33199;47.590;8.300;2023-06-22T12:55:17;24.90;63.50
30594;DHT22;33199;47.590;8.300;2023-06-22T12:57:42;24.90;63.50
30594;DHT22;33199;47.590;8.300;2023-06-22T13:00:08;24.90;63.30
30594;DHT22;33199;47.590;8.300;2023-06-22T13:02:35;24.90;63.90
30594;DHT22;33199;47.590;8.300;2023-06-22T13:05:01;24.90;63.20
30594;DHT22;33199;47.590;8.300;2023-06-22T13:07:27;24.90;63.20
30594;DHT22;33199;47.590;8.300;2023-06-22T13:09:52;24.90;63.10
30594;DHT22;33199;47.590;8.300;2023-06-22T13:12:18;24.90;63.00
30594;DHT22;33199;47.590;8.300;2023-06-22T13:14:45;24.90;62.90
30594;DHT22;33199;47.590;8.300;2023-06-22T13:17:11;24.90;62.70
30594;DHT22;33199;47.590;8.300;2023-06-22T13:19:37;24.90;62.70
30594;DHT22;33199;47.590;8.300;2023-06-22T13:22:03;24.90;62.70
30594;DHT22;33199;47.590;8.300;2023-06-22T13:24:29;24.90;62.70
30594;DHT22;33199;47.590;8.300;2023-06-22T13:26:54;24.90;62.60
30594;DHT22;33199;47.590;8.300;2023-06-22T13:29:20;24.90;62.60
30594;DHT22;33199;47.590;8.300;2023-06-22T13:31:46;24.90;62.60
30594;DHT22;33199;47.590;8.300;2023-06-22T13:34:11;24.90;62.60
30594;DHT22;33199;47.590;8.300;2023-06-22T13:36:37;24.90;62.50
30594;DHT22;33199;47.590;8.300;2023-06-22T13:39:03;24.90;62.50
30594;DHT22;33199;47.590;8.300;2023-06-22T13:41:28;24.90;63.90
30594;DHT22;33199;47.590;8.300;2023-06-22T13:43:54;25.00;64.70
30594;DHT22;33199;47.590;8.300;2023-06-22T13:46:19;25.10;65.10
30594;DHT22;33199;47.590;8.300;2023-06-22T13:48:45;25.10;65.30
30594;DHT22;33199;47.590;8.300;2023-06-22T13:51:10;25.30;64.40
30594;DHT22;33199;47.590;8.300;2023-06-22T13:53:36;25.20;64.00
30594;DHT22;33199;47.590;8.300;2023-06-22T13:56:01;25.30;63.50
30594;DHT22;33199;47.590;8.300;2023-06-22T13:58:27;25.30;63.10
30594;DHT22;33199;47.590;8.300;2023-06-22T14:00:52;25.20;63.30
30594;DHT22;33199;47.590;8.300;2023-06-22T14:03:18;25.30;63.30
30594;DHT22;33199;47.590;8.300;2023-06-22T14:05:43;25.40;63.90
30594;DHT22;33199;47.590;8.300;2023-06-22T14:08:09;25.50;63.40
30594;DHT22;33199;47.590;8.300;2023-06-22T14:10:34;25.60;62.50
30594;DHT22;33199;47.590;8.300;2023-06-22T14:13:00;25.60;62.10
30594;DHT22;33199;47.590;8.300;2023-06-22T14:15:26;25.60;62.00
30594;DHT22;33199;47.590;8.300;2023-06-22T14:17:51;25.50;62.00
30594;DHT22;33199;47.590;8.300;2023-06-22T14:20:17;25.50;62.20
30594;DHT22;33199;47.590;8.300;2023-06-22T14:22:42;25.40;62.20
30594;DHT22;33199;47.590;8.300;2023-06-22T14:25:08;25.40;62.30
30594;DHT22;33199;47.590;8.300;2023-06-22T14:27:33;25.30;62.40
30594;DHT22;33199;47.590;8.300;2023-06-22T14:29:59;25.30;62.50
30594;DHT22;33199;47.590;8.300;2023-06-22T14:32:24;25.30;62.60
30594;DHT22;33199;47.590;8.300;2023-06-22T14:34:50;25.20;62.60
30594;DHT22;33199;47.590;8.300;2023-06-22T14:37:16;25.20;62.70
30594;DHT22;33199;47.590;8.300;2023-06-22T14:39:41;25.20;62.70
30594;DHT22;33199;47.590;8.300;2023-06-22T14:42:07;25.20;62.70
30594;DHT22;33199;47.590;8.300;2023-06-22T14:44:33;25.10;62.70
30594;DHT22;33199;47.590;8.300;2023-06-22T14:46:59;25.10;62.70
30594;DHT22;33199;47.590;8.300;2023-06-22T14:49:24;25.10;62.70
30594;DHT22;33199;47.590;8.300;2023-06-22T14:51:50;25.00;62.50
30594;DHT22;33199;47.590;8.300;2023-06-22T14:54:15;25.00;62.70
30594;DHT22;33199;47.590;8.300;2023-06-22T14:56:41;25.00;62.40
30594;DHT22;33199;47.590;8.300;2023-06-22T14:59:06;25.00;62.40
30594;DHT22;33199;47.590;8.300;2023-06-22T15:01:32;25.10;62.50
30594;DHT22;33199;47.590;8.300;2023-06-22T15:03:57;25.00;62.30
30594;DHT22;33199;47.590;8.300;2023-06-22T15:06:23;25.00;62.30
30594;DHT22;33199;47.590;8.300;2023-06-22T15:08:48;25.00;62.20
30594;DHT22;33199;47.590;8.300;2023-06-22T15:11:14;25.00;62.20
30594;DHT22;33199;47.590;8.300;2023-06-22T15:13:40;25.00;62.20
30594;DHT22;33199;47.590;8.300;2023-06-22T15:16:05;24.90;62.20
30594;DHT22;33199;47.590;8.300;2023-06-22T15:18:31;25.00;62.20
30594;DHT22;33199;47.590;8.300;2023-06-22T15:20:59;24.90;62.10
30594;DHT22;33199;47.590;8.300;2023-06-22T15:23:26;24.90;62.10
30594;DHT22;33199;47.590;8.300;2023-06-22T15:25:54;24.90;62.10
30594;DHT22;33199;47.590;8.300;2023-06-22T15:28:20;24.90;62.10